createdAt,value
2022-11-25T00:01:12.762Z,79.85
2022-11-25T00:03:40.868Z,79.67
2022-11-25T00:06:18.979Z,79.63
2022-11-25T00:08:47.538Z,79.98
2022-11-25T00:11:15.156Z,79.97
2022-11-25T00:13:43.324Z,79.81
2022-11-25T00:16:13.130Z,79.51
2022-11-25T00:18:40.635Z,80.05
2022-11-25T00:21:09.675Z,80.47
2022-11-25T00:23:37.560Z,80.20
2022-11-25T00:26:10.555Z,80.47
2022-11-25T00:28:38.069Z,80.34
2022-11-25T00:31:16.754Z,80.46
2022-11-25T00:33:45.480Z,80.41
2022-11-25T00:36:23.261Z,80.23
2022-11-25T00:39:01.645Z,80.17
2022-11-25T00:41:47.999Z,80.45
2022-11-25T00:44:38.585Z,79.99
2022-11-25T00:47:12.035Z,79.92
2022-11-25T00:49:40.994Z,80.07
2022-11-25T00:52:09.120Z,80.25
2022-11-25T00:54:36.186Z,80.04
2022-11-25T00:57:03.381Z,80.39
2022-11-25T00:59:30.593Z,80.33
2022-11-25T01:01:59.457Z,80.03
2022-11-25T01:04:26.626Z,80.03
2022-11-25T01:06:54.265Z,79.63
2022-11-25T01:09:21.136Z,79.49
2022-11-25T01:11:50.770Z,79.71
2022-11-25T01:14:18.592Z,80.06
2022-11-25T01:16:47.695Z,80.08
2022-11-25T01:19:15.350Z,79.99
2022-11-25T01:21:42.899Z,80.42
2022-11-25T01:24:13.984Z,80.06
2022-11-25T01:26:41.429Z,79.81
2022-11-25T01:29:13.427Z,79.99
2022-11-25T01:31:40.379Z,79.96
2022-11-25T01:34:18.720Z,80.00
2022-11-25T01:36:45.694Z,79.62
2022-11-25T01:39:27.093Z,79.92
2022-11-25T01:41:58.775Z,79.64
2022-11-25T01:44:30.731Z,79.44
2022-11-25T01:47:06.371Z,79.40
2022-11-25T01:49:42.145Z,79.78
2022-11-25T01:52:12.704Z,79.93
2022-11-25T01:55:08.222Z,79.37
2022-11-25T01:57:50.961Z,79.43
2022-11-25T02:00:19.349Z,80.16
2022-11-25T02:02:50.230Z,80.09
2022-11-25T02:05:22.121Z,80.01
2022-11-25T02:07:51.610Z,79.83
2022-11-25T02:10:27.353Z,79.70
2022-11-25T02:12:55.668Z,79.85
2022-11-25T02:15:23.241Z,79.81
2022-11-25T02:17:51.039Z,79.51
2022-11-25T02:20:20.896Z,79.30
2022-11-25T02:22:52.128Z,79.24
2022-11-25T02:25:39.021Z,79.58
2022-11-25T02:28:18.116Z,79.49
2022-11-25T02:30:47.002Z,80.26
2022-11-25T02:33:15.867Z,80.28
2022-11-25T02:35:49.850Z,80.37
2022-11-25T02:38:39.418Z,80.52
2022-11-25T02:41:16.355Z,80.80
2022-11-25T02:43:46.077Z,80.62
2022-11-25T02:46:21.842Z,80.11
2022-11-25T02:51:37.750Z,80.17
2022-11-25T02:54:04.726Z,79.90
2022-11-25T02:56:34.604Z,79.92
2022-11-25T02:59:02.112Z,79.90
2022-11-25T03:01:31.464Z,80.12
2022-11-25T03:03:59.313Z,80.23
2022-11-25T03:06:29.330Z,80.24
2022-11-25T03:08:56.804Z,80.37
2022-11-25T03:11:46.768Z,80.60
2022-11-25T03:14:14.697Z,80.48
2022-11-25T03:16:42.731Z,80.07
2022-11-25T03:19:09.626Z,80.17
2022-11-25T03:21:36.773Z,80.46
2022-11-25T03:24:03.690Z,80.11
2022-11-25T03:26:30.548Z,80.23
2022-11-25T03:28:57.381Z,80.41
2022-11-25T03:31:24.169Z,80.50
2022-11-25T03:33:50.980Z,80.41
2022-11-25T03:36:17.715Z,80.51
2022-11-25T03:38:44.458Z,79.70
2022-11-25T03:41:11.181Z,80.09
2022-11-25T03:43:38.084Z,80.01
2022-11-25T03:46:05.018Z,79.70
2022-11-25T03:48:32.167Z,79.35
2022-11-25T03:50:58.897Z,79.09
2022-11-25T03:53:27.798Z,78.93
2022-11-25T03:55:54.561Z,79.29
2022-11-25T03:58:24.498Z,79.14
2022-11-25T04:00:51.617Z,79.12
2022-11-25T04:03:18.876Z,79.35
2022-11-25T04:05:45.729Z,78.68
2022-11-25T04:08:13.172Z,78.57
2022-11-25T04:10:39.986Z,78.93
2022-11-25T04:13:08.584Z,79.33
2022-11-25T04:15:47.481Z,79.42
2022-11-25T04:18:16.968Z,79.48
2022-11-25T04:20:43.936Z,79.70
2022-11-25T04:23:13.521Z,79.44
2022-11-25T04:25:49.763Z,79.70
2022-11-25T04:28:23.492Z,79.85
2022-11-25T04:30:50.681Z,79.98
2022-11-25T04:33:17.777Z,80.19
2022-11-25T04:35:47.014Z,79.48
2022-11-25T04:38:14.007Z,79.64
2022-11-25T04:40:40.758Z,79.80
2022-11-25T04:43:16.936Z,79.08
2022-11-25T04:48:37.452Z,79.29
2022-11-25T04:51:04.491Z,79.43
2022-11-25T04:53:32.112Z,79.51
2022-11-25T04:55:58.951Z,78.95
2022-11-25T04:58:44.590Z,78.63
2022-11-25T05:01:11.691Z,78.32
2022-11-25T05:03:48.785Z,78.59
2022-11-25T05:06:17.796Z,78.58
2022-11-25T05:08:44.545Z,78.68
2022-11-25T05:11:11.999Z,78.59
2022-11-25T05:13:38.670Z,78.32
2022-11-25T05:16:07.121Z,78.74
2022-11-25T05:18:33.929Z,78.85
2022-11-25T05:21:02.672Z,78.53
2022-11-25T05:23:31.969Z,79.05
2022-11-25T05:26:04.297Z,78.82
2022-11-25T05:28:38.053Z,79.01
2022-11-25T05:31:06.216Z,79.04
2022-11-25T05:33:33.181Z,79.07
2022-11-25T05:36:03.246Z,78.93
2022-11-25T05:38:36.790Z,78.95
2022-11-25T05:41:06.087Z,78.87
2022-11-25T05:43:33.485Z,79.06
2022-11-25T05:46:05.376Z,78.95
2022-11-25T05:48:33.886Z,79.00
2022-11-25T05:51:03.093Z,79.30
2022-11-25T05:53:31.751Z,79.44
2022-11-25T05:56:02.144Z,79.53
2022-11-25T05:58:47.467Z,78.94
2022-11-25T06:01:20.955Z,79.55
2022-11-25T06:03:54.989Z,79.21
2022-11-25T06:06:22.149Z,79.70
2022-11-25T06:08:49.110Z,79.72
2022-11-25T06:11:17.611Z,79.57
2022-11-25T06:13:45.589Z,79.58
2022-11-25T06:16:21.158Z,79.45
2022-11-25T06:18:52.367Z,79.96
2022-11-25T06:21:19.891Z,79.82
2022-11-25T06:23:47.088Z,79.78
2022-11-25T06:26:19.561Z,80.06
2022-11-25T06:28:47.247Z,80.08
2022-11-25T06:31:19.300Z,79.31
2022-11-25T06:33:54.985Z,79.42
2022-11-25T06:36:22.583Z,79.84
2022-11-25T06:38:51.933Z,79.59
2022-11-25T06:41:19.812Z,80.06
2022-11-25T06:43:47.003Z,79.81
2022-11-25T06:46:18.536Z,80.17
2022-11-25T06:48:48.268Z,80.07
2022-11-25T06:51:16.286Z,80.10
2022-11-25T06:53:43.290Z,80.00
2022-11-25T06:56:13.276Z,80.06
2022-11-25T06:58:41.577Z,80.11
2022-11-25T07:01:14.051Z,80.22
2022-11-25T07:03:41.797Z,79.95
2022-11-25T07:06:09.659Z,80.48
2022-11-25T07:08:36.599Z,80.17
2022-11-25T07:11:08.888Z,79.67
2022-11-25T07:13:35.813Z,79.67
2022-11-25T07:16:04.723Z,79.45
2022-11-25T07:18:36.534Z,79.16
2022-11-25T07:21:07.160Z,79.11
2022-11-25T07:23:35.170Z,78.87
2022-11-25T07:26:16.641Z,79.19
2022-11-25T07:28:44.296Z,78.98
2022-11-25T07:31:24.863Z,78.94
2022-11-25T07:34:07.231Z,78.62
2022-11-25T07:36:35.515Z,78.82
2022-11-25T07:39:08.967Z,79.07
2022-11-25T07:41:35.769Z,78.19
2022-11-25T07:44:05.440Z,78.49
2022-11-25T07:46:45.676Z,78.05
2022-11-25T07:49:18.600Z,78.32
2022-11-25T07:51:50.165Z,78.77
2022-11-25T07:54:17.607Z,77.75
2022-11-25T07:56:48.498Z,77.66
2022-11-25T07:59:20.786Z,78.74
2022-11-25T08:01:52.544Z,78.71
2022-11-25T08:04:21.117Z,78.98
2022-11-25T08:06:49.880Z,78.39
2022-11-25T08:09:19.338Z,79.00
2022-11-25T08:11:46.691Z,78.62
2022-11-25T08:14:13.813Z,78.62
2022-11-25T08:16:40.638Z,78.96
2022-11-25T08:19:11.528Z,79.02
2022-11-25T08:21:38.431Z,79.04
2022-11-25T08:24:05.623Z,79.21
2022-11-25T08:26:36.515Z,79.30
2022-11-25T08:29:05.764Z,79.38
2022-11-25T08:31:35.312Z,79.09
2022-11-25T08:34:03.235Z,79.03
2022-11-25T08:36:33.086Z,79.08
2022-11-25T08:39:02.236Z,79.45
2022-11-25T08:41:32.221Z,79.34
2022-11-25T08:44:01.744Z,79.32
2022-11-25T08:46:33.526Z,79.23
2022-11-25T08:49:00.774Z,78.68
2022-11-25T08:51:31.017Z,79.20
2022-11-25T08:53:58.676Z,79.08
2022-11-25T08:56:26.729Z,78.67
2022-11-25T08:58:55.038Z,78.82
2022-11-25T09:01:23.141Z,78.81
2022-11-25T09:03:52.032Z,78.46
2022-11-25T09:06:19.319Z,78.56
2022-11-25T09:08:46.729Z,78.78
2022-11-25T09:11:14.192Z,78.75
2022-11-25T09:13:41.018Z,79.01
2022-11-25T09:16:08.980Z,78.23
2022-11-25T09:18:37.117Z,79.00
2022-11-25T09:21:13.320Z,78.34
2022-11-25T09:23:40.760Z,78.75
2022-11-25T09:26:08.615Z,78.36
2022-11-25T09:28:42.365Z,78.38
2022-11-25T09:31:09.892Z,78.19
2022-11-25T09:33:37.208Z,78.51
2022-11-25T09:36:06.160Z,78.89
2022-11-25T09:38:34.145Z,78.39
2022-11-25T09:41:08.576Z,78.71
2022-11-25T09:44:24.268Z,78.28
2022-11-25T09:47:09.841Z,78.84
2022-11-25T09:49:48.067Z,78.44
2022-11-25T09:52:36.759Z,78.75
2022-11-25T09:55:17.990Z,78.09
2022-11-25T09:58:06.005Z,78.59
2022-11-25T10:00:39.091Z,78.60
2022-11-25T10:03:20.722Z,78.50
2022-11-25T10:06:04.979Z,78.71
2022-11-25T10:08:44.661Z,78.21
2022-11-25T10:11:20.617Z,78.19
2022-11-25T10:14:06.037Z,78.35
2022-11-25T10:16:35.670Z,77.82
2022-11-25T10:19:17.251Z,78.17
2022-11-25T10:21:46.340Z,78.38
2022-11-25T10:24:15.250Z,78.11
2022-11-25T10:26:49.340Z,78.39
2022-11-25T10:29:27.558Z,78.00
2022-11-25T10:32:04.627Z,78.37
2022-11-25T10:34:40.321Z,78.18
2022-11-25T10:37:14.511Z,77.81
2022-11-25T10:39:41.250Z,77.71
2022-11-25T10:42:18.436Z,77.80
2022-11-25T10:44:45.194Z,78.09
2022-11-25T10:47:42.697Z,78.22
2022-11-25T10:50:51.743Z,77.76
2022-11-25T10:53:26.292Z,77.69
2022-11-25T10:56:09.586Z,77.70
2022-11-25T10:58:39.215Z,77.26
2022-11-25T11:01:14.158Z,77.47
2022-11-25T11:03:43.157Z,77.57
2022-11-25T11:06:28.972Z,77.35
2022-11-25T11:08:55.712Z,77.59
2022-11-25T11:11:24.205Z,77.35
2022-11-25T11:14:18.781Z,77.42
2022-11-25T11:16:53.281Z,77.93
2022-11-25T11:19:25.945Z,77.46
2022-11-25T11:21:53.791Z,77.42
2022-11-25T11:24:34.348Z,77.71
2022-11-25T11:27:10.180Z,77.25
2022-11-25T11:29:37.062Z,77.49
2022-11-25T11:32:18.854Z,77.70
2022-11-25T11:35:03.126Z,77.36
2022-11-25T11:37:35.839Z,77.42
2022-11-25T11:40:32.024Z,77.42
2022-11-25T11:43:07.466Z,76.96
2022-11-25T11:46:10.177Z,76.81
2022-11-25T11:49:00.456Z,77.03
2022-11-25T11:51:33.956Z,77.20
2022-11-25T11:54:16.269Z,77.79
2022-11-25T11:56:59.624Z,77.47
2022-11-25T11:59:29.289Z,78.17
2022-11-25T12:02:28.735Z,77.22
2022-11-25T12:05:10.869Z,77.41
2022-11-25T12:08:13.840Z,77.70
2022-11-25T12:11:05.361Z,77.46
2022-11-25T12:14:03.250Z,77.93
2022-11-25T12:16:57.232Z,77.46
2022-11-25T12:19:45.113Z,77.64
2022-11-25T12:22:34.300Z,77.31
2022-11-25T12:25:13.025Z,77.41
2022-11-25T12:27:50.508Z,77.99
2022-11-25T12:30:22.667Z,78.08
2022-11-25T12:32:58.648Z,78.02
2022-11-25T12:35:51.252Z,78.69
2022-11-25T12:38:32.797Z,78.48
2022-11-25T12:41:08.291Z,77.93
2022-11-25T12:43:50.826Z,78.22
2022-11-25T12:46:51.134Z,77.95
2022-11-25T12:49:25.108Z,77.80
2022-11-25T12:52:16.918Z,77.63
2022-11-25T12:55:11.745Z,77.41
2022-11-25T12:58:16.125Z,77.78
2022-11-25T13:01:19.939Z,78.07
2022-11-25T13:04:14.840Z,77.93
2022-11-25T13:06:59.409Z,78.18
2022-11-25T13:09:41.135Z,78.03
2022-11-25T13:12:14.441Z,77.80
2022-11-25T13:14:53.363Z,77.72
2022-11-25T13:17:22.316Z,77.74
2022-11-25T13:19:49.602Z,77.74
2022-11-25T13:22:23.599Z,77.92
2022-11-25T13:24:50.669Z,78.06
2022-11-25T13:27:42.019Z,78.27
2022-11-25T13:30:33.704Z,78.31
2022-11-25T13:33:09.557Z,78.03
2022-11-25T13:35:38.317Z,77.98
2022-11-25T13:38:28.561Z,77.59
2022-11-25T13:41:01.053Z,78.46
2022-11-25T13:43:28.552Z,78.07
2022-11-25T13:45:56.420Z,77.83
2022-11-25T13:48:32.149Z,78.06
2022-11-25T13:51:21.668Z,78.40
2022-11-25T13:54:01.246Z,78.83
2022-11-25T13:56:37.669Z,78.16
2022-11-25T13:59:10.299Z,78.12
2022-11-25T14:01:38.956Z,78.14
2022-11-25T14:04:08.525Z,77.52
2022-11-25T14:06:57.465Z,78.11
2022-11-25T14:10:01.838Z,77.95
2022-11-25T14:13:04.251Z,78.39
2022-11-25T14:15:54.609Z,77.71
2022-11-25T14:18:53.195Z,78.26
2022-11-25T14:21:26.634Z,78.31
2022-11-25T14:24:27.234Z,78.42
2022-11-25T14:26:56.389Z,78.65
2022-11-25T14:29:32.013Z,78.63
2022-11-25T14:32:26.703Z,78.90
2022-11-25T14:34:56.957Z,78.51
2022-11-25T14:37:46.675Z,78.25
2022-11-25T14:40:29.243Z,78.48
2022-11-25T14:43:04.689Z,78.66
2022-11-25T14:45:33.701Z,78.24
2022-11-25T14:48:24.173Z,78.53
2022-11-25T14:51:04.356Z,78.25
2022-11-25T14:53:31.295Z,78.45
2022-11-25T14:56:00.259Z,78.64
2022-11-25T14:58:28.112Z,78.44
2022-11-25T15:00:57.867Z,78.91
2022-11-25T15:03:25.117Z,78.56
2022-11-25T15:06:01.298Z,78.63
2022-11-25T15:08:37.761Z,78.56
2022-11-25T15:11:19.027Z,78.51
2022-11-25T15:13:48.990Z,78.41
2022-11-25T15:16:18.675Z,78.80
2022-11-25T15:18:57.510Z,78.78
2022-11-25T15:22:00.098Z,78.92
2022-11-25T15:24:30.153Z,79.01
2022-11-25T15:27:00.138Z,79.36
2022-11-25T15:29:29.301Z,79.63
2022-11-25T15:31:57.239Z,79.77
2022-11-25T15:34:29.141Z,79.79
2022-11-25T15:37:01.100Z,79.58
2022-11-25T15:39:30.688Z,79.05
2022-11-25T15:42:07.687Z,78.88
2022-11-25T15:44:44.854Z,78.83
2022-11-25T15:47:15.187Z,79.04
2022-11-25T15:49:51.633Z,79.32
2022-11-25T15:52:21.170Z,79.21
2022-11-25T15:54:53.990Z,78.97
2022-11-25T15:57:33.956Z,79.54
2022-11-25T16:00:00.738Z,79.55
2022-11-25T16:02:49.268Z,79.31
2022-11-25T16:05:25.260Z,79.55
2022-11-25T16:07:53.234Z,79.16
2022-11-25T16:10:19.985Z,79.12
2022-11-25T16:13:29.564Z,78.66
2022-11-25T16:16:07.947Z,78.54
2022-11-25T16:18:50.318Z,79.06
2022-11-25T16:21:24.196Z,79.71
2022-11-25T16:23:54.891Z,79.31
2022-11-25T16:26:29.822Z,79.48
2022-11-25T16:28:59.135Z,79.33
2022-11-25T16:31:26.584Z,79.14
2022-11-25T16:33:56.596Z,78.93
2022-11-25T16:36:23.481Z,79.08
2022-11-25T16:38:56.900Z,78.75
2022-11-25T16:41:25.625Z,78.99
2022-11-25T16:43:52.852Z,79.25
2022-11-25T16:46:20.325Z,79.05
2022-11-25T16:48:47.350Z,78.42
2022-11-25T16:51:19.544Z,78.89
2022-11-25T16:53:47.357Z,78.69
2022-11-25T16:56:23.757Z,78.69
2022-11-25T16:58:50.652Z,78.87
2022-11-25T17:01:20.106Z,79.45
2022-11-25T17:03:46.947Z,78.49
2022-11-25T17:06:22.202Z,78.78
2022-11-25T17:08:49.829Z,79.03
2022-11-25T17:11:21.626Z,78.77
2022-11-25T17:13:50.839Z,78.64
2022-11-25T17:16:23.609Z,78.19
2022-11-25T17:18:53.341Z,78.48
2022-11-25T17:21:20.549Z,78.77
2022-11-25T17:23:50.233Z,78.04
2022-11-25T17:26:35.622Z,78.43
2022-11-25T17:29:06.373Z,78.37
2022-11-25T17:31:36.442Z,78.25
2022-11-25T17:34:03.309Z,78.47
2022-11-25T17:36:30.093Z,78.45
2022-11-25T17:38:57.067Z,78.67
2022-11-25T17:41:28.011Z,78.77
2022-11-25T17:43:55.218Z,77.52
2022-11-25T17:46:22.153Z,78.26
2022-11-25T17:48:48.902Z,77.89
2022-11-25T17:51:15.701Z,78.41
2022-11-25T17:53:42.528Z,78.59
2022-11-25T17:56:25.014Z,77.70
2022-11-25T17:58:52.829Z,77.76
2022-11-25T18:01:19.725Z,78.00
2022-11-25T18:03:49.449Z,77.49
2022-11-25T18:06:16.197Z,77.43
2022-11-25T18:08:42.905Z,77.96
2022-11-25T18:11:14.884Z,77.86
2022-11-25T18:13:43.703Z,77.97
2022-11-25T18:16:10.980Z,78.18
2022-11-25T18:18:38.066Z,77.81
2022-11-25T18:21:04.806Z,78.22
2022-11-25T18:23:31.567Z,77.96
2022-11-25T18:26:01.936Z,77.33
2022-11-25T18:28:31.028Z,77.69
2022-11-25T18:31:02.470Z,77.61
2022-11-25T18:33:30.116Z,77.44
2022-11-25T18:35:57.039Z,77.28
2022-11-25T18:38:23.937Z,77.39
2022-11-25T18:40:53.773Z,77.05
2022-11-25T18:43:24.560Z,77.00
2022-11-25T18:45:53.092Z,77.54
2022-11-25T18:48:22.962Z,77.15
2022-11-25T18:50:53.109Z,77.42
2022-11-25T18:53:20.128Z,77.21
2022-11-25T18:55:48.243Z,77.58
2022-11-25T18:58:21.468Z,76.97
2022-11-25T19:00:50.739Z,77.51
2022-11-25T19:03:22.960Z,77.28
2022-11-25T19:05:50.295Z,77.01
2022-11-25T19:08:18.641Z,77.20
2022-11-25T19:10:47.052Z,77.38
2022-11-25T19:13:30.271Z,77.50
2022-11-25T19:16:12.753Z,77.10
2022-11-25T19:18:39.762Z,77.33
2022-11-25T19:21:06.597Z,77.63
2022-11-25T19:23:36.001Z,77.20
2022-11-25T19:26:11.525Z,77.16
2022-11-25T19:28:38.528Z,76.98
2022-11-25T19:31:06.014Z,76.94
2022-11-25T19:33:38.744Z,76.64
2022-11-25T19:36:06.703Z,77.07
2022-11-25T19:38:34.797Z,77.01
2022-11-25T19:41:01.805Z,77.34
2022-11-25T19:43:28.669Z,77.81
2022-11-25T19:45:56.925Z,77.91
2022-11-25T19:48:29.434Z,77.37
2022-11-25T19:51:00.020Z,76.95
2022-11-25T19:53:33.362Z,77.81
2022-11-25T19:56:04.122Z,77.86
2022-11-25T19:58:31.578Z,77.62
2022-11-25T20:01:03.385Z,77.21
2022-11-25T20:03:31.285Z,76.99
2022-11-25T20:05:58.794Z,76.81
2022-11-25T20:08:27.604Z,77.65
2022-11-25T20:10:55.771Z,76.85
2022-11-25T20:13:26.232Z,77.01
2022-11-25T20:15:55.943Z,77.38
2022-11-25T20:18:25.280Z,77.43
2022-11-25T20:21:06.373Z,77.65
2022-11-25T20:23:43.258Z,77.37
2022-11-25T20:26:23.120Z,77.29
2022-11-25T20:28:49.947Z,76.54
2022-11-25T20:31:16.734Z,77.13
2022-11-25T20:33:43.569Z,77.33
2022-11-25T20:36:16.342Z,76.87
2022-11-25T20:38:47.346Z,77.02
2022-11-25T20:41:15.390Z,77.19
2022-11-25T20:43:44.631Z,77.02
2022-11-25T20:46:16.440Z,76.99
2022-11-25T20:48:44.452Z,76.70
2022-11-25T20:51:22.393Z,76.99
2022-11-25T20:53:52.035Z,77.10
2022-11-25T20:56:21.758Z,77.75
2022-11-25T20:58:48.554Z,77.42
2022-11-25T21:01:16.929Z,77.82
2022-11-25T21:03:44.816Z,77.74
2022-11-25T21:06:27.660Z,78.18
2022-11-25T21:08:56.645Z,77.72
2022-11-25T21:11:23.448Z,77.63
2022-11-25T21:13:51.971Z,77.23
2022-11-25T21:16:18.787Z,77.63
2022-11-25T21:18:45.925Z,77.75
2022-11-25T21:21:17.334Z,77.36
2022-11-25T21:23:51.215Z,76.89
2022-11-25T21:26:25.057Z,77.11
2022-11-25T21:28:54.885Z,77.98
2022-11-25T21:31:25.893Z,77.56
2022-11-25T21:34:02.527Z,77.90
2022-11-25T21:36:30.947Z,77.53
2022-11-25T21:39:04.134Z,77.76
2022-11-25T21:41:30.919Z,77.85
2022-11-25T21:43:57.942Z,78.17
2022-11-25T21:46:28.831Z,77.59
2022-11-25T21:48:55.782Z,77.28
2022-11-25T21:51:24.315Z,77.28
2022-11-25T21:53:54.595Z,77.22
2022-11-25T21:56:31.572Z,77.62
2022-11-25T21:59:00.666Z,77.23
2022-11-25T22:01:27.784Z,77.52
2022-11-25T22:03:54.749Z,77.07
2022-11-25T22:06:24.831Z,77.25
2022-11-25T22:08:51.866Z,77.25
2022-11-25T22:11:22.146Z,77.59
2022-11-25T22:13:50.013Z,76.61
2022-11-25T22:16:24.420Z,77.13
2022-11-25T22:18:51.483Z,77.00
2022-11-25T22:21:18.220Z,77.01
2022-11-25T22:23:44.949Z,76.76
2022-11-25T22:26:21.020Z,77.10
2022-11-25T22:28:51.767Z,76.74
2022-11-25T22:31:19.998Z,77.82
2022-11-25T22:33:47.275Z,77.60
2022-11-25T22:36:36.943Z,78.01
2022-11-25T22:39:18.791Z,78.26
2022-11-25T22:41:49.467Z,78.19
2022-11-25T22:44:32.424Z,78.28
2022-11-25T22:46:59.403Z,78.25
2022-11-25T22:49:31.080Z,78.36
2022-11-25T22:51:58.189Z,77.98
2022-11-25T22:54:25.427Z,78.00
2022-11-25T22:56:52.252Z,77.64
2022-11-25T22:59:18.955Z,77.65
2022-11-25T23:01:46.035Z,77.87
2022-11-25T23:04:20.412Z,77.42
2022-11-25T23:06:47.614Z,77.60
2022-11-25T23:09:17.758Z,77.87
2022-11-25T23:11:45.623Z,77.84
2022-11-25T23:14:12.519Z,78.20
2022-11-25T23:16:40.886Z,78.14
2022-11-25T23:19:16.772Z,78.03
2022-11-25T23:21:45.719Z,78.07
2022-11-25T23:24:16.892Z,78.04
2022-11-25T23:26:44.378Z,77.41
2022-11-25T23:29:11.196Z,77.70
2022-11-25T23:31:40.276Z,77.77
2022-11-25T23:34:08.088Z,77.76
2022-11-25T23:36:48.804Z,77.49
2022-11-25T23:39:24.153Z,77.48
2022-11-25T23:41:51.463Z,77.89
2022-11-25T23:44:31.835Z,77.66
2022-11-25T23:47:02.116Z,77.23
2022-11-25T23:49:34.323Z,76.67
2022-11-25T23:52:07.845Z,76.91
2022-11-25T23:54:42.488Z,76.80
2022-11-25T23:57:21.376Z,77.03
2022-11-25T23:59:49.052Z,76.81
